sensor_id;sensor_type;location;lat;lon;timestamp;P1;durP1;ratioP1;P2;durP2;ratioP2
20896;SDS011;10608;42.600;23.398;2023-07-20T00:00:00;46.10;;;43.77;;
20896;SDS011;10608;42.600;23.398;2023-07-20T00:02:26;38.67;;;36.80;;
20896;SDS011;10608;42.600;23.398;2023-07-20T00:04:51;37.13;;;35.33;;
20896;SDS011;10608;42.600;23.398;2023-07-20T00:07:17;37.07;;;35.37;;
20896;SDS011;10608;42.600;23.398;2023-07-20T00:09:42;40.93;;;39.03;;
20896;SDS011;10608;42.600;23.398;2023-07-20T00:12:07;38.47;;;36.43;;
20896;SDS011;10608;42.600;23.398;2023-07-20T00:14:33;40.37;;;38.37;;
20896;SDS011;10608;42.600;23.398;2023-07-20T00:16:59;37.57;;;35.77;;
20896;SDS011;10608;42.600;23.398;2023-07-20T00:19:27;42.87;;;40.17;;
20896;SDS011;10608;42.600;23.398;2023-07-20T00:21:53;46.07;;;44.03;;
20896;SDS011;10608;42.600;23.398;2023-07-20T00:24:20;42.50;;;40.60;;
20896;SDS011;10608;42.600;23.398;2023-07-20T00:26:46;53.37;;;50.83;;
20896;SDS011;10608;42.600;23.398;2023-07-20T00:29:12;63.90;;;60.80;;
20896;SDS011;10608;42.600;23.398;2023-07-20T00:31:37;58.07;;;55.37;;
20896;SDS011;10608;42.600;23.398;2023-07-20T00:34:03;55.03;;;52.40;;
20896;SDS011;10608;42.600;23.398;2023-07-20T00:36:29;47.63;;;45.53;;
20896;SDS011;10608;42.600;23.398;2023-07-20T00:38:54;46.97;;;44.50;;
20896;SDS011;10608;42.600;23.398;2023-07-20T00:41:20;43.13;;;41.27;;
20896;SDS011;10608;42.600;23.398;2023-07-20T00:43:45;40.73;;;38.70;;
20896;SDS011;10608;42.600;23.398;2023-07-20T00:46:11;40.97;;;38.73;;
20896;SDS011;10608;42.600;23.398;2023-07-20T00:48:37;42.77;;;40.87;;
20896;SDS011;10608;42.600;23.398;2023-07-20T00:51:02;32.00;;;30.30;;
20896;SDS011;10608;42.600;23.398;2023-07-20T00:53:28;37.37;;;35.53;;
20896;SDS011;10608;42.600;23.398;2023-07-20T00:55:54;49.23;;;47.07;;
20896;SDS011;10608;42.600;23.398;2023-07-20T00:58:20;54.97;;;52.27;;
20896;SDS011;10608;42.600;23.398;2023-07-20T01:00:46;60.47;;;57.67;;
20896;SDS011;10608;42.600;23.398;2023-07-20T01:03:12;68.03;;;64.90;;
20896;SDS011;10608;42.600;23.398;2023-07-20T01:06:02;105.83;;;101.37;;
20896;SDS011;10608;42.600;23.398;2023-07-20T01:11:23;129.77;;;124.37;;
20896;SDS011;10608;42.600;23.398;2023-07-20T01:14:10;111.00;;;106.10;;
20896;SDS011;10608;42.600;23.398;2023-07-20T01:16:37;101.20;;;96.63;;
20896;SDS011;10608;42.600;23.398;2023-07-20T01:19:02;96.07;;;91.87;;
20896;SDS011;10608;42.600;23.398;2023-07-20T01:21:39;85.63;;;81.77;;
20896;SDS011;10608;42.600;23.398;2023-07-20T01:32:52;81.87;;;78.27;;
20896;SDS011;10608;42.600;23.398;2023-07-20T01:35:20;92.57;;;88.53;;
20896;SDS011;10608;42.600;23.398;2023-07-20T01:37:51;92.20;;;88.13;;
20896;SDS011;10608;42.600;23.398;2023-07-20T01:40:19;94.30;;;90.17;;
20896;SDS011;10608;42.600;23.398;2023-07-20T01:42:46;99.10;;;94.70;;
20896;SDS011;10608;42.600;23.398;2023-07-20T01:45:12;103.80;;;99.37;;
20896;SDS011;10608;42.600;23.398;2023-07-20T01:47:37;97.50;;;93.17;;
20896;SDS011;10608;42.600;23.398;2023-07-20T01:50:03;94.17;;;90.17;;
20896;SDS011;10608;42.600;23.398;2023-07-20T01:52:28;88.27;;;84.37;;
20896;SDS011;10608;42.600;23.398;2023-07-20T01:54:54;93.73;;;89.53;;
20896;SDS011;10608;42.600;23.398;2023-07-20T01:57:20;87.83;;;84.13;;
20896;SDS011;10608;42.600;23.398;2023-07-20T01:59:45;86.07;;;82.30;;
20896;SDS011;10608;42.600;23.398;2023-07-20T02:02:11;99.50;;;94.97;;
20896;SDS011;10608;42.600;23.398;2023-07-20T02:04:36;121.83;;;116.73;;
20896;SDS011;10608;42.600;23.398;2023-07-20T02:07:01;114.93;;;109.97;;
20896;SDS011;10608;42.600;23.398;2023-07-20T02:09:27;115.30;;;110.40;;
20896;SDS011;10608;42.600;23.398;2023-07-20T02:11:52;114.03;;;109.27;;
20896;SDS011;10608;42.600;23.398;2023-07-20T02:14:18;105.27;;;100.73;;
20896;SDS011;10608;42.600;23.398;2023-07-20T02:16:43;121.73;;;116.47;;
20896;SDS011;10608;42.600;23.398;2023-07-20T02:19:08;115.33;;;110.33;;
20896;SDS011;10608;42.600;23.398;2023-07-20T02:21:34;118.37;;;113.27;;
20896;SDS011;10608;42.600;23.398;2023-07-20T02:23:59;134.33;;;128.67;;
20896;SDS011;10608;42.600;23.398;2023-07-20T02:26:25;120.00;;;114.90;;
20896;SDS011;10608;42.600;23.398;2023-07-20T02:28:50;97.93;;;93.30;;
20896;SDS011;10608;42.600;23.398;2023-07-20T02:31:16;92.13;;;88.13;;
20896;SDS011;10608;42.600;23.398;2023-07-20T02:33:41;86.03;;;82.20;;
20896;SDS011;10608;42.600;23.398;2023-07-20T02:36:07;85.47;;;81.77;;
20896;SDS011;10608;42.600;23.398;2023-07-20T02:38:32;77.47;;;74.03;;
20896;SDS011;10608;42.600;23.398;2023-07-20T02:40:57;75.47;;;71.83;;
20896;SDS011;10608;42.600;23.398;2023-07-20T02:43:23;77.33;;;73.53;;
20896;SDS011;10608;42.600;23.398;2023-07-20T02:45:49;81.17;;;77.10;;
20896;SDS011;10608;42.600;23.398;2023-07-20T02:48:15;82.00;;;78.33;;
20896;SDS011;10608;42.600;23.398;2023-07-20T02:50:41;88.67;;;84.77;;
20896;SDS011;10608;42.600;23.398;2023-07-20T02:53:06;88.47;;;84.50;;
20896;SDS011;10608;42.600;23.398;2023-07-20T02:55:31;96.93;;;92.53;;
20896;SDS011;10608;42.600;23.398;2023-07-20T02:57:57;93.30;;;89.00;;
20896;SDS011;10608;42.600;23.398;2023-07-20T03:00:22;86.40;;;82.33;;
20896;SDS011;10608;42.600;23.398;2023-07-20T03:02:48;78.83;;;75.23;;
20896;SDS011;10608;42.600;23.398;2023-07-20T03:05:14;68.50;;;65.23;;
20896;SDS011;10608;42.600;23.398;2023-07-20T03:07:41;71.27;;;68.00;;
20896;SDS011;10608;42.600;23.398;2023-07-20T03:10:08;70.87;;;67.67;;
20896;SDS011;10608;42.600;23.398;2023-07-20T03:12:34;68.97;;;65.77;;
20896;SDS011;10608;42.600;23.398;2023-07-20T03:15:01;75.33;;;71.63;;
20896;SDS011;10608;42.600;23.398;2023-07-20T03:17:27;76.63;;;73.10;;
20896;SDS011;10608;42.600;23.398;2023-07-20T03:19:53;83.47;;;79.37;;
20896;SDS011;10608;42.600;23.398;2023-07-20T03:22:18;85.97;;;82.20;;
20896;SDS011;10608;42.600;23.398;2023-07-20T03:24:44;90.30;;;86.23;;
20896;SDS011;10608;42.600;23.398;2023-07-20T03:27:09;107.20;;;102.43;;
20896;SDS011;10608;42.600;23.398;2023-07-20T03:29:35;121.60;;;116.20;;
20896;SDS011;10608;42.600;23.398;2023-07-20T03:32:00;117.60;;;112.20;;
20896;SDS011;10608;42.600;23.398;2023-07-20T03:34:25;126.27;;;120.43;;
20896;SDS011;10608;42.600;23.398;2023-07-20T03:36:51;125.17;;;119.50;;
20896;SDS011;10608;42.600;23.398;2023-07-20T03:39:16;165.87;;;158.57;;
20896;SDS011;10608;42.600;23.398;2023-07-20T03:41:42;169.80;;;162.23;;
20896;SDS011;10608;42.600;23.398;2023-07-20T03:44:08;173.07;;;165.50;;
20896;SDS011;10608;42.600;23.398;2023-07-20T03:46:33;94.80;;;90.60;;
20896;SDS011;10608;42.600;23.398;2023-07-20T03:48:59;77.47;;;73.50;;
20896;SDS011;10608;42.600;23.398;2023-07-20T03:51:25;105.30;;;99.73;;
20896;SDS011;10608;42.600;23.398;2023-07-20T03:53:51;64.93;;;61.43;;
20896;SDS011;10608;42.600;23.398;2023-07-20T03:56:16;54.37;;;51.57;;
20896;SDS011;10608;42.600;23.398;2023-07-20T03:58:42;61.13;;;58.27;;
20896;SDS011;10608;42.600;23.398;2023-07-20T04:01:07;43.83;;;41.47;;
20896;SDS011;10608;42.600;23.398;2023-07-20T04:03:33;40.93;;;39.13;;
20896;SDS011;10608;42.600;23.398;2023-07-20T04:05:58;59.63;;;56.83;;
20896;SDS011;10608;42.600;23.398;2023-07-20T04:08:24;57.93;;;54.93;;
20896;SDS011;10608;42.600;23.398;2023-07-20T04:10:49;48.13;;;45.93;;
20896;SDS011;10608;42.600;23.398;2023-07-20T04:13:15;40.70;;;38.83;;
20896;SDS011;10608;42.600;23.398;2023-07-20T04:15:41;47.63;;;45.40;;
20896;SDS011;10608;42.600;23.398;2023-07-20T04:18:07;37.40;;;35.60;;
20896;SDS011;10608;42.600;23.398;2023-07-20T04:20:32;36.50;;;34.70;;
20896;SDS011;10608;42.600;23.398;2023-07-20T04:22:58;23.50;;;22.40;;
20896;SDS011;10608;42.600;23.398;2023-07-20T04:25:23;31.17;;;29.63;;
20896;SDS011;10608;42.600;23.398;2023-07-20T04:27:49;25.67;;;24.20;;
20896;SDS011;10608;42.600;23.398;2023-07-20T04:30:16;28.43;;;26.90;;
20896;SDS011;10608;42.600;23.398;2023-07-20T04:32:44;26.53;;;25.20;;
20896;SDS011;10608;42.600;23.398;2023-07-20T04:35:16;32.80;;;31.27;;
20896;SDS011;10608;42.600;23.398;2023-07-20T04:38:02;24.23;;;22.80;;
20896;SDS011;10608;42.600;23.398;2023-07-20T04:40:27;30.30;;;28.80;;
20896;SDS011;10608;42.600;23.398;2023-07-20T04:42:52;30.77;;;29.20;;
20896;SDS011;10608;42.600;23.398;2023-07-20T04:45:18;57.53;;;55.07;;
20896;SDS011;10608;42.600;23.398;2023-07-20T04:47:44;56.60;;;53.90;;
20896;SDS011;10608;42.600;23.398;2023-07-20T04:50:09;44.80;;;42.50;;
20896;SDS011;10608;42.600;23.398;2023-07-20T04:52:35;39.30;;;37.13;;
20896;SDS011;10608;42.600;23.398;2023-07-20T04:55:00;44.53;;;42.40;;
20896;SDS011;10608;42.600;23.398;2023-07-20T04:57:25;45.97;;;43.93;;
20896;SDS011;10608;42.600;23.398;2023-07-20T04:59:51;46.37;;;44.17;;
20896;SDS011;10608;42.600;23.398;2023-07-20T05:02:17;28.27;;;26.87;;
20896;SDS011;10608;42.600;23.398;2023-07-20T05:04:42;33.17;;;31.47;;
20896;SDS011;10608;42.600;23.398;2023-07-20T05:07:07;41.50;;;39.50;;
20896;SDS011;10608;42.600;23.398;2023-07-20T05:09:33;40.53;;;38.63;;
20896;SDS011;10608;42.600;23.398;2023-07-20T05:11:59;36.87;;;35.17;;
20896;SDS011;10608;42.600;23.398;2023-07-20T05:14:24;41.67;;;39.67;;
20896;SDS011;10608;42.600;23.398;2023-07-20T05:16:49;37.57;;;35.63;;
20896;SDS011;10608;42.600;23.398;2023-07-20T05:19:15;32.40;;;30.83;;
20896;SDS011;10608;42.600;23.398;2023-07-20T05:21:40;19.50;;;18.30;;
20896;SDS011;10608;42.600;23.398;2023-07-20T05:24:06;14.00;;;13.30;;
20896;SDS011;10608;42.600;23.398;2023-07-20T05:26:31;16.90;;;15.83;;
20896;SDS011;10608;42.600;23.398;2023-07-20T05:28:58;21.43;;;20.33;;
20896;SDS011;10608;42.600;23.398;2023-07-20T05:31:24;18.90;;;17.93;;
20896;SDS011;10608;42.600;23.398;2023-07-20T05:33:49;14.37;;;13.67;;
20896;SDS011;10608;42.600;23.398;2023-07-20T05:36:27;15.63;;;14.70;;
20896;SDS011;10608;42.600;23.398;2023-07-20T05:38:52;26.37;;;25.07;;
20896;SDS011;10608;42.600;23.398;2023-07-20T05:41:18;20.97;;;19.70;;
20896;SDS011;10608;42.600;23.398;2023-07-20T05:43:43;22.90;;;21.80;;
20896;SDS011;10608;42.600;23.398;2023-07-20T05:46:08;20.20;;;19.00;;
20896;SDS011;10608;42.600;23.398;2023-07-20T05:48:34;22.40;;;21.20;;
20896;SDS011;10608;42.600;23.398;2023-07-20T05:51:01;19.40;;;18.40;;
20896;SDS011;10608;42.600;23.398;2023-07-20T05:53:26;16.03;;;15.13;;
20896;SDS011;10608;42.600;23.398;2023-07-20T05:55:52;14.00;;;13.30;;
20896;SDS011;10608;42.600;23.398;2023-07-20T05:58:18;16.47;;;15.43;;
20896;SDS011;10608;42.600;23.398;2023-07-20T06:00:44;18.97;;;17.80;;
20896;SDS011;10608;42.600;23.398;2023-07-20T06:03:12;15.10;;;13.87;;
20896;SDS011;10608;42.600;23.398;2023-07-20T06:05:37;16.03;;;15.23;;
20896;SDS011;10608;42.600;23.398;2023-07-20T06:08:03;16.27;;;15.27;;
20896;SDS011;10608;42.600;23.398;2023-07-20T06:10:28;13.03;;;12.23;;
20896;SDS011;10608;42.600;23.398;2023-07-20T06:12:54;13.63;;;12.63;;
20896;SDS011;10608;42.600;23.398;2023-07-20T06:15:27;16.93;;;16.03;;
20896;SDS011;10608;42.600;23.398;2023-07-20T06:17:54;13.57;;;12.87;;
20896;SDS011;10608;42.600;23.398;2023-07-20T06:20:21;14.13;;;13.43;;
20896;SDS011;10608;42.600;23.398;2023-07-20T06:22:47;30.30;;;28.90;;
20896;SDS011;10608;42.600;23.398;2023-07-20T06:25:13;26.25;;;25.02;;
20896;SDS011;10608;42.600;23.398;2023-07-20T06:27:38;15.13;;;14.20;;
20896;SDS011;10608;42.600;23.398;2023-07-20T06:30:03;18.80;;;17.90;;
20896;SDS011;10608;42.600;23.398;2023-07-20T06:32:29;14.60;;;13.77;;
20896;SDS011;10608;42.600;23.398;2023-07-20T06:34:55;13.57;;;12.87;;
20896;SDS011;10608;42.600;23.398;2023-07-20T06:37:20;13.77;;;13.07;;
20896;SDS011;10608;42.600;23.398;2023-07-20T06:39:45;12.80;;;12.00;;
20896;SDS011;10608;42.600;23.398;2023-07-20T06:42:11;12.73;;;11.90;;
20896;SDS011;10608;42.600;23.398;2023-07-20T06:44:36;12.07;;;11.37;;
20896;SDS011;10608;42.600;23.398;2023-07-20T06:47:02;11.80;;;11.10;;
20896;SDS011;10608;42.600;23.398;2023-07-20T06:49:28;14.67;;;13.73;;
20896;SDS011;10608;42.600;23.398;2023-07-20T06:51:53;12.15;;;11.52;;
20896;SDS011;10608;42.600;23.398;2023-07-20T06:54:19;13.20;;;12.40;;
20896;SDS011;10608;42.600;23.398;2023-07-20T06:56:44;13.68;;;13.05;;
20896;SDS011;10608;42.600;23.398;2023-07-20T06:59:10;12.95;;;12.15;;
20896;SDS011;10608;42.600;23.398;2023-07-20T07:01:35;13.67;;;12.87;;
20896;SDS011;10608;42.600;23.398;2023-07-20T07:04:01;13.97;;;13.27;;
20896;SDS011;10608;42.600;23.398;2023-07-20T07:06:26;17.00;;;15.80;;
20896;SDS011;10608;42.600;23.398;2023-07-20T07:08:52;16.93;;;15.83;;
20896;SDS011;10608;42.600;23.398;2023-07-20T07:11:18;21.73;;;20.37;;
20896;SDS011;10608;42.600;23.398;2023-07-20T07:13:44;16.27;;;15.17;;
20896;SDS011;10608;42.600;23.398;2023-07-20T07:16:12;17.37;;;16.50;;
20896;SDS011;10608;42.600;23.398;2023-07-20T07:18:37;16.70;;;15.83;;
20896;SDS011;10608;42.600;23.398;2023-07-20T07:21:05;32.93;;;31.33;;
20896;SDS011;10608;42.600;23.398;2023-07-20T07:23:30;22.70;;;21.57;;
20896;SDS011;10608;42.600;23.398;2023-07-20T07:25:55;17.63;;;16.50;;
20896;SDS011;10608;42.600;23.398;2023-07-20T07:28:21;14.47;;;13.17;;
20896;SDS011;10608;42.600;23.398;2023-07-20T07:30:46;11.13;;;10.33;;
20896;SDS011;10608;42.600;23.398;2023-07-20T07:33:12;13.37;;;12.53;;
20896;SDS011;10608;42.600;23.398;2023-07-20T07:35:38;12.70;;;11.63;;
20896;SDS011;10608;42.600;23.398;2023-07-20T07:38:03;16.40;;;15.53;;
20896;SDS011;10608;42.600;23.398;2023-07-20T07:40:31;33.50;;;31.67;;
20896;SDS011;10608;42.600;23.398;2023-07-20T07:42:57;35.90;;;34.27;;
20896;SDS011;10608;42.600;23.398;2023-07-20T07:45:22;30.45;;;29.02;;
20896;SDS011;10608;42.600;23.398;2023-07-20T07:47:47;19.10;;;18.00;;
20896;SDS011;10608;42.600;23.398;2023-07-20T07:50:13;15.68;;;14.88;;
20896;SDS011;10608;42.600;23.398;2023-07-20T07:52:38;11.98;;;11.18;;
20896;SDS011;10608;42.600;23.398;2023-07-20T07:55:04;16.90;;;15.95;;
20896;SDS011;10608;42.600;23.398;2023-07-20T07:57:30;14.60;;;13.70;;
20896;SDS011;10608;42.600;23.398;2023-07-20T07:59:55;15.90;;;14.27;;
20896;SDS011;10608;42.600;23.398;2023-07-20T08:02:20;10.70;;;10.10;;
20896;SDS011;10608;42.600;23.398;2023-07-20T08:04:46;10.40;;;9.63;;
20896;SDS011;10608;42.600;23.398;2023-07-20T08:07:12;9.68;;;8.90;;
20896;SDS011;10608;42.600;23.398;2023-07-20T08:09:37;10.05;;;9.45;;
20896;SDS011;10608;42.600;23.398;2023-07-20T08:12:03;12.48;;;11.77;;
20896;SDS011;10608;42.600;23.398;2023-07-20T08:14:29;12.55;;;11.65;;
20896;SDS011;10608;42.600;23.398;2023-07-20T08:16:54;11.25;;;10.27;;
20896;SDS011;10608;42.600;23.398;2023-07-20T08:19:20;11.65;;;10.82;;
20896;SDS011;10608;42.600;23.398;2023-07-20T08:21:45;11.70;;;10.98;;
20896;SDS011;10608;42.600;23.398;2023-07-20T08:24:10;12.88;;;11.90;;
20896;SDS011;10608;42.600;23.398;2023-07-20T08:26:36;13.07;;;12.18;;
20896;SDS011;10608;42.600;23.398;2023-07-20T08:29:01;12.00;;;11.05;;
20896;SDS011;10608;42.600;23.398;2023-07-20T08:31:27;11.63;;;10.82;;
20896;SDS011;10608;42.600;23.398;2023-07-20T08:33:53;11.85;;;10.82;;
20896;SDS011;10608;42.600;23.398;2023-07-20T08:36:19;15.05;;;13.82;;
20896;SDS011;10608;42.600;23.398;2023-07-20T08:38:44;12.60;;;11.70;;
20896;SDS011;10608;42.600;23.398;2023-07-20T08:41:09;11.13;;;10.32;;
20896;SDS011;10608;42.600;23.398;2023-07-20T08:43:35;11.13;;;10.43;;
20896;SDS011;10608;42.600;23.398;2023-07-20T08:46:02;11.52;;;10.82;;
20896;SDS011;10608;42.600;23.398;2023-07-20T08:48:29;12.50;;;11.82;;
20896;SDS011;10608;42.600;23.398;2023-07-20T08:50:56;14.35;;;13.65;;
20896;SDS011;10608;42.600;23.398;2023-07-20T08:53:23;15.15;;;14.45;;
20896;SDS011;10608;42.600;23.398;2023-07-20T08:55:50;13.20;;;12.40;;
20896;SDS011;10608;42.600;23.398;2023-07-20T08:58:17;14.18;;;13.20;;
20896;SDS011;10608;42.600;23.398;2023-07-20T09:00:43;13.25;;;12.35;;
20896;SDS011;10608;42.600;23.398;2023-07-20T09:03:10;12.55;;;11.77;;
20896;SDS011;10608;42.600;23.398;2023-07-20T09:05:36;13.27;;;12.52;;
20896;SDS011;10608;42.600;23.398;2023-07-20T09:08:03;12.63;;;12.02;;
20896;SDS011;10608;42.600;23.398;2023-07-20T09:10:30;12.30;;;11.13;;
20896;SDS011;10608;42.600;23.398;2023-07-20T09:12:56;10.70;;;10.15;;
20896;SDS011;10608;42.600;23.398;2023-07-20T09:15:21;10.30;;;9.65;;
20896;SDS011;10608;42.600;23.398;2023-07-20T09:17:48;11.63;;;11.02;;
20896;SDS011;10608;42.600;23.398;2023-07-20T09:20:15;11.55;;;10.55;;
20896;SDS011;10608;42.600;23.398;2023-07-20T09:22:42;10.82;;;10.13;;
20896;SDS011;10608;42.600;23.398;2023-07-20T09:25:16;8.38;;;7.97;;
20896;SDS011;10608;42.600;23.398;2023-07-20T09:27:43;10.80;;;10.15;;
20896;SDS011;10608;42.600;23.398;2023-07-20T09:30:10;11.85;;;10.57;;
20896;SDS011;10608;42.600;23.398;2023-07-20T09:32:39;8.85;;;8.07;;
20896;SDS011;10608;42.600;23.398;2023-07-20T09:35:12;9.55;;;8.93;;
20896;SDS011;10608;42.600;23.398;2023-07-20T09:37:45;10.18;;;9.25;;
20896;SDS011;10608;42.600;23.398;2023-07-20T09:40:14;8.90;;;8.25;;
20896;SDS011;10608;42.600;23.398;2023-07-20T09:42:40;20.27;;;18.88;;
20896;SDS011;10608;42.600;23.398;2023-07-20T09:45:08;18.98;;;17.90;;
20896;SDS011;10608;42.600;23.398;2023-07-20T09:47:38;18.00;;;17.08;;
20896;SDS011;10608;42.600;23.398;2023-07-20T09:50:04;22.98;;;21.45;;
20896;SDS011;10608;42.600;23.398;2023-07-20T09:52:35;16.98;;;16.13;;
20896;SDS011;10608;42.600;23.398;2023-07-20T09:55:09;18.05;;;17.20;;
20896;SDS011;10608;42.600;23.398;2023-07-20T09:57:37;22.98;;;21.83;;
20896;SDS011;10608;42.600;23.398;2023-07-20T10:00:03;20.63;;;19.65;;
20896;SDS011;10608;42.600;23.398;2023-07-20T10:02:40;19.65;;;18.75;;
20896;SDS011;10608;42.600;23.398;2023-07-20T10:05:11;13.38;;;12.77;;
20896;SDS011;10608;42.600;23.398;2023-07-20T10:07:40;10.52;;;9.93;;
20896;SDS011;10608;42.600;23.398;2023-07-20T10:10:11;11.52;;;10.90;;
20896;SDS011;10608;42.600;23.398;2023-07-20T10:12:40;12.00;;;10.93;;
20896;SDS011;10608;42.600;23.398;2023-07-20T10:20:39;10.60;;;9.80;;
20896;SDS011;10608;42.600;23.398;2023-07-20T10:23:09;20.57;;;19.57;;
20896;SDS011;10608;42.600;23.398;2023-07-20T10:25:35;20.23;;;19.03;;
20896;SDS011;10608;42.600;23.398;2023-07-20T10:28:06;17.63;;;16.70;;
20896;SDS011;10608;42.600;23.398;2023-07-20T10:30:35;20.43;;;19.03;;
20896;SDS011;10608;42.600;23.398;2023-07-20T10:33:04;19.70;;;18.80;;
20896;SDS011;10608;42.600;23.398;2023-07-20T10:35:31;20.87;;;19.90;;
20896;SDS011;10608;42.600;23.398;2023-07-20T10:38:16;17.27;;;16.33;;
20896;SDS011;10608;42.600;23.398;2023-07-20T10:40:41;18.73;;;17.83;;
20896;SDS011;10608;42.600;23.398;2023-07-20T10:43:07;17.90;;;17.00;;
20896;SDS011;10608;42.600;23.398;2023-07-20T10:48:08;20.67;;;19.27;;
20896;SDS011;10608;42.600;23.398;2023-07-20T10:50:39;17.10;;;16.20;;
20896;SDS011;10608;42.600;23.398;2023-07-20T10:55:40;22.03;;;20.53;;
20896;SDS011;10608;42.600;23.398;2023-07-20T10:58:10;20.27;;;19.20;;
20896;SDS011;10608;42.600;23.398;2023-07-20T11:00:54;18.20;;;17.03;;
20896;SDS011;10608;42.600;23.398;2023-07-20T11:03:31;17.87;;;16.97;;
20896;SDS011;10608;42.600;23.398;2023-07-20T11:06:29;18.60;;;17.57;;
20896;SDS011;10608;42.600;23.398;2023-07-20T11:08:48;15.93;;;15.03;;
20896;SDS011;10608;42.600;23.398;2023-07-20T11:11:26;17.20;;;16.10;;
20896;SDS011;10608;42.600;23.398;2023-07-20T11:16:48;13.80;;;12.90;;
20896;SDS011;10608;42.600;23.398;2023-07-20T11:24:18;13.07;;;12.27;;
20896;SDS011;10608;42.600;23.398;2023-07-20T11:26:43;11.77;;;11.27;;
20896;SDS011;10608;42.600;23.398;2023-07-20T11:29:13;14.27;;;13.50;;
20896;SDS011;10608;42.600;23.398;2023-07-20T11:31:41;17.30;;;16.50;;
20896;SDS011;10608;42.600;23.398;2023-07-20T11:34:10;17.30;;;16.53;;
20896;SDS011;10608;42.600;23.398;2023-07-20T11:36:40;18.80;;;17.90;;
20896;SDS011;10608;42.600;23.398;2023-07-20T11:39:08;23.87;;;22.80;;
20896;SDS011;10608;42.600;23.398;2023-07-20T11:41:34;19.80;;;18.73;;
20896;SDS011;10608;42.600;23.398;2023-07-20T11:44:00;12.40;;;11.50;;
20896;SDS011;10608;42.600;23.398;2023-07-20T11:46:27;12.97;;;12.07;;
20896;SDS011;10608;42.600;23.398;2023-07-20T11:48:57;15.37;;;14.47;;
20896;SDS011;10608;42.600;23.398;2023-07-20T11:51:29;14.23;;;13.27;;
20896;SDS011;10608;42.600;23.398;2023-07-20T11:53:54;13.20;;;12.33;;
20896;SDS011;10608;42.600;23.398;2023-07-20T11:56:22;12.20;;;11.50;;
20896;SDS011;10608;42.600;23.398;2023-07-20T11:58:48;11.50;;;10.70;;
20896;SDS011;10608;42.600;23.398;2023-07-20T12:01:13;12.33;;;11.63;;
20896;SDS011;10608;42.600;23.398;2023-07-20T12:03:39;17.37;;;16.47;;
20896;SDS011;10608;42.600;23.398;2023-07-20T12:06:07;22.00;;;20.90;;
20896;SDS011;10608;42.600;23.398;2023-07-20T12:08:39;22.00;;;20.67;;
20896;SDS011;10608;42.600;23.398;2023-07-20T12:11:06;17.07;;;16.03;;
20896;SDS011;10608;42.600;23.398;2023-07-20T12:13:50;16.10;;;15.17;;
20896;SDS011;10608;42.600;23.398;2023-07-20T12:16:15;19.80;;;18.57;;
20896;SDS011;10608;42.600;23.398;2023-07-20T12:18:45;22.07;;;20.77;;
20896;SDS011;10608;42.600;23.398;2023-07-20T12:21:10;22.47;;;20.90;;
20896;SDS011;10608;42.600;23.398;2023-07-20T12:23:40;18.37;;;17.17;;
20896;SDS011;10608;42.600;23.398;2023-07-20T12:26:07;15.47;;;14.53;;
20896;SDS011;10608;42.600;23.398;2023-07-20T12:28:36;13.57;;;12.37;;
20896;SDS011;10608;42.600;23.398;2023-07-20T12:31:05;14.37;;;13.27;;
20896;SDS011;10608;42.600;23.398;2023-07-20T12:33:31;12.67;;;11.77;;
20896;SDS011;10608;42.600;23.398;2023-07-20T12:35:56;13.67;;;12.77;;
20896;SDS011;10608;42.600;23.398;2023-07-20T12:38:24;16.03;;;14.77;;
20896;SDS011;10608;42.600;23.398;2023-07-20T12:40:49;13.93;;;13.03;;
20896;SDS011;10608;42.600;23.398;2023-07-20T12:43:15;13.77;;;12.93;;
20896;SDS011;10608;42.600;23.398;2023-07-20T12:45:40;13.23;;;12.40;;
20896;SDS011;10608;42.600;23.398;2023-07-20T12:48:06;11.67;;;10.97;;
20896;SDS011;10608;42.600;23.398;2023-07-20T12:50:31;12.90;;;11.80;;
20896;SDS011;10608;42.600;23.398;2023-07-20T12:52:57;11.57;;;10.87;;
20896;SDS011;10608;42.600;23.398;2023-07-20T12:55:22;12.00;;;11.40;;
20896;SDS011;10608;42.600;23.398;2023-07-20T12:57:48;11.73;;;11.13;;
20896;SDS011;10608;42.600;23.398;2023-07-20T13:00:14;11.13;;;10.63;;
20896;SDS011;10608;42.600;23.398;2023-07-20T13:02:41;13.50;;;12.30;;
20896;SDS011;10608;42.600;23.398;2023-07-20T13:05:07;11.80;;;10.90;;
20896;SDS011;10608;42.600;23.398;2023-07-20T13:07:36;11.60;;;10.90;;
20896;SDS011;10608;42.600;23.398;2023-07-20T13:10:03;11.80;;;11.13;;
20896;SDS011;10608;42.600;23.398;2023-07-20T13:12:30;11.83;;;10.80;;
20896;SDS011;10608;42.600;23.398;2023-07-20T13:14:56;11.60;;;10.97;;
20896;SDS011;10608;42.600;23.398;2023-07-20T13:17:25;11.80;;;11.20;;
20896;SDS011;10608;42.600;23.398;2023-07-20T13:19:50;12.23;;;11.27;;
20896;SDS011;10608;42.600;23.398;2023-07-20T13:22:16;11.97;;;11.37;;
20896;SDS011;10608;42.600;23.398;2023-07-20T13:24:41;11.63;;;10.93;;
20896;SDS011;10608;42.600;23.398;2023-07-20T13:27:09;12.03;;;11.27;;
20896;SDS011;10608;42.600;23.398;2023-07-20T13:29:35;12.13;;;11.33;;
20896;SDS011;10608;42.600;23.398;2023-07-20T13:32:00;12.60;;;12.00;;
20896;SDS011;10608;42.600;23.398;2023-07-20T13:34:26;13.00;;;12.30;;
20896;SDS011;10608;42.600;23.398;2023-07-20T13:36:51;12.10;;;11.37;;
20896;SDS011;10608;42.600;23.398;2023-07-20T13:39:17;13.40;;;12.70;;
20896;SDS011;10608;42.600;23.398;2023-07-20T13:41:42;13.40;;;12.23;;
20896;SDS011;10608;42.600;23.398;2023-07-20T13:44:08;11.93;;;11.00;;
20896;SDS011;10608;42.600;23.398;2023-07-20T13:46:33;13.17;;;12.07;;
20896;SDS011;10608;42.600;23.398;2023-07-20T13:48:59;12.97;;;12.27;;
20896;SDS011;10608;42.600;23.398;2023-07-20T13:51:24;12.20;;;11.50;;
20896;SDS011;10608;42.600;23.398;2023-07-20T13:53:50;14.27;;;13.50;;
20896;SDS011;10608;42.600;23.398;2023-07-20T13:56:15;17.40;;;16.40;;
20896;SDS011;10608;42.600;23.398;2023-07-20T13:58:41;20.17;;;19.17;;
20896;SDS011;10608;42.600;23.398;2023-07-20T14:01:07;19.63;;;18.63;;
20896;SDS011;10608;42.600;23.398;2023-07-20T14:03:32;18.53;;;17.63;;
20896;SDS011;10608;42.600;23.398;2023-07-20T14:05:58;19.70;;;18.60;;
20896;SDS011;10608;42.600;23.398;2023-07-20T14:08:23;18.43;;;17.47;;
20896;SDS011;10608;42.600;23.398;2023-07-20T14:10:48;15.87;;;14.97;;
20896;SDS011;10608;42.600;23.398;2023-07-20T14:13:14;17.47;;;16.67;;
20896;SDS011;10608;42.600;23.398;2023-07-20T14:15:39;15.80;;;14.67;;
20896;SDS011;10608;42.600;23.398;2023-07-20T14:18:05;16.97;;;16.10;;
20896;SDS011;10608;42.600;23.398;2023-07-20T14:20:30;16.13;;;15.20;;
20896;SDS011;10608;42.600;23.398;2023-07-20T14:22:56;16.30;;;15.20;;
20896;SDS011;10608;42.600;23.398;2023-07-20T14:25:21;15.60;;;14.57;;
20896;SDS011;10608;42.600;23.398;2023-07-20T14:27:47;16.53;;;15.70;;
20896;SDS011;10608;42.600;23.398;2023-07-20T14:30:12;18.47;;;17.27;;
20896;SDS011;10608;42.600;23.398;2023-07-20T14:32:38;17.37;;;16.23;;
20896;SDS011;10608;42.600;23.398;2023-07-20T14:35:04;16.20;;;15.43;;